sensor_id;sensor_type;location;lat;lon;timestamp;P1;durP1;ratioP1;P2;durP2;ratioP2
36797;SDS011;22748;8.426;99.512;2023-02-20T00:01:01;43.20;;;30.25;;
36797;SDS011;22748;8.426;99.512;2023-02-20T00:03:31;62.20;;;50.47;;
36797;SDS011;22748;8.426;99.512;2023-02-20T00:06:00;35.20;;;24.75;;
36797;SDS011;22748;8.426;99.512;2023-02-20T00:08:33;39.70;;;26.10;;
36797;SDS011;22748;8.426;99.512;2023-02-20T00:11:07;57.42;;;37.92;;
36797;SDS011;22748;8.426;99.512;2023-02-20T00:13:36;60.20;;;45.92;;
36797;SDS011;22748;8.426;99.512;2023-02-20T00:16:07;76.60;;;50.70;;
36797;SDS011;22748;8.426;99.512;2023-02-20T00:18:45;85.68;;;54.72;;
36797;SDS011;22748;8.426;99.512;2023-02-20T00:21:16;82.93;;;52.33;;
36797;SDS011;22748;8.426;99.512;2023-02-20T00:23:51;110.05;;;67.65;;
36797;SDS011;22748;8.426;99.512;2023-02-20T00:26:21;81.18;;;56.13;;
36797;SDS011;22748;8.426;99.512;2023-02-20T00:28:52;54.87;;;37.83;;
36797;SDS011;22748;8.426;99.512;2023-02-20T00:31:29;41.78;;;25.63;;
36797;SDS011;22748;8.426;99.512;2023-02-20T00:34:03;40.28;;;25.13;;
36797;SDS011;22748;8.426;99.512;2023-02-20T00:36:35;40.60;;;24.70;;
36797;SDS011;22748;8.426;99.512;2023-02-20T00:39:13;38.75;;;29.77;;
36797;SDS011;22748;8.426;99.512;2023-02-20T00:41:44;42.15;;;31.52;;
36797;SDS011;22748;8.426;99.512;2023-02-20T00:44:14;42.47;;;28.60;;
36797;SDS011;22748;8.426;99.512;2023-02-20T00:46:47;32.75;;;26.55;;
36797;SDS011;22748;8.426;99.512;2023-02-20T00:49:18;35.22;;;25.33;;
36797;SDS011;22748;8.426;99.512;2023-02-20T00:51:53;33.72;;;29.23;;
36797;SDS011;22748;8.426;99.512;2023-02-20T00:54:28;47.50;;;37.75;;
36797;SDS011;22748;8.426;99.512;2023-02-20T00:57:00;46.88;;;35.97;;
36797;SDS011;22748;8.426;99.512;2023-02-20T00:59:37;57.45;;;37.33;;
36797;SDS011;22748;8.426;99.512;2023-02-20T01:02:10;54.97;;;37.13;;
36797;SDS011;22748;8.426;99.512;2023-02-20T01:04:42;52.30;;;37.97;;
36797;SDS011;22748;8.426;99.512;2023-02-20T01:07:22;51.45;;;37.63;;
36797;SDS011;22748;8.426;99.512;2023-02-20T01:10:00;52.35;;;36.83;;
36797;SDS011;22748;8.426;99.512;2023-02-20T01:12:35;48.78;;;34.63;;
36797;SDS011;22748;8.426;99.512;2023-02-20T01:15:10;43.72;;;33.15;;
36797;SDS011;22748;8.426;99.512;2023-02-20T01:17:43;46.08;;;31.08;;
36797;SDS011;22748;8.426;99.512;2023-02-20T01:20:14;43.83;;;30.88;;
36797;SDS011;22748;8.426;99.512;2023-02-20T01:22:54;38.40;;;30.23;;
36797;SDS011;22748;8.426;99.512;2023-02-20T01:25:34;43.47;;;30.13;;
36797;SDS011;22748;8.426;99.512;2023-02-20T01:28:07;46.60;;;33.92;;
36797;SDS011;22748;8.426;99.512;2023-02-20T01:30:40;48.75;;;35.40;;
36797;SDS011;22748;8.426;99.512;2023-02-20T01:33:17;40.70;;;31.95;;
36797;SDS011;22748;8.426;99.512;2023-02-20T01:35:48;51.60;;;33.15;;
36797;SDS011;22748;8.426;99.512;2023-02-20T01:38:18;46.85;;;31.73;;
36797;SDS011;22748;8.426;99.512;2023-02-20T01:40:49;46.33;;;33.88;;
36797;SDS011;22748;8.426;99.512;2023-02-20T01:43:19;46.20;;;31.48;;
36797;SDS011;22748;8.426;99.512;2023-02-20T01:45:48;40.45;;;30.02;;
36797;SDS011;22748;8.426;99.512;2023-02-20T01:48:24;37.70;;;28.88;;
36797;SDS011;22748;8.426;99.512;2023-02-20T01:50:56;41.28;;;30.02;;
36797;SDS011;22748;8.426;99.512;2023-02-20T01:53:27;39.17;;;27.65;;
36797;SDS011;22748;8.426;99.512;2023-02-20T01:56:09;43.05;;;29.05;;
36797;SDS011;22748;8.426;99.512;2023-02-20T01:58:43;45.40;;;32.78;;
36797;SDS011;22748;8.426;99.512;2023-02-20T02:01:18;40.72;;;30.63;;
36797;SDS011;22748;8.426;99.512;2023-02-20T02:03:48;37.33;;;28.13;;
36797;SDS011;22748;8.426;99.512;2023-02-20T02:06:23;36.33;;;26.08;;
36797;SDS011;22748;8.426;99.512;2023-02-20T02:08:54;61.88;;;27.00;;
36797;SDS011;22748;8.426;99.512;2023-02-20T02:11:35;39.78;;;25.13;;
36797;SDS011;22748;8.426;99.512;2023-02-20T02:14:07;33.45;;;24.38;;
36797;SDS011;22748;8.426;99.512;2023-02-20T02:16:44;31.70;;;23.50;;
36797;SDS011;22748;8.426;99.512;2023-02-20T02:19:31;33.17;;;23.58;;
36797;SDS011;22748;8.426;99.512;2023-02-20T02:22:31;32.13;;;23.27;;
36797;SDS011;22748;8.426;99.512;2023-02-20T02:25:24;36.83;;;23.35;;
36797;SDS011;22748;8.426;99.512;2023-02-20T02:31:22;36.03;;;24.38;;
36797;SDS011;22748;8.426;99.512;2023-02-20T02:37:20;30.67;;;22.63;;
36797;SDS011;22748;8.426;99.512;2023-02-20T02:39:58;32.55;;;25.88;;
36797;SDS011;22748;8.426;99.512;2023-02-20T02:42:39;24.65;;;20.98;;
36797;SDS011;22748;8.426;99.512;2023-02-20T02:45:37;26.40;;;18.80;;
36797;SDS011;22748;8.426;99.512;2023-02-20T02:48:13;21.05;;;14.32;;
36797;SDS011;22748;8.426;99.512;2023-02-20T02:50:48;17.73;;;12.43;;
36797;SDS011;22748;8.426;99.512;2023-02-20T02:53:29;18.92;;;9.52;;
36797;SDS011;22748;8.426;99.512;2023-02-20T02:56:00;20.63;;;9.52;;
36797;SDS011;22748;8.426;99.512;2023-02-20T02:58:48;14.57;;;9.32;;
36797;SDS011;22748;8.426;99.512;2023-02-20T03:01:27;15.50;;;10.30;;
36797;SDS011;22748;8.426;99.512;2023-02-20T03:04:00;18.25;;;12.13;;
36797;SDS011;22748;8.426;99.512;2023-02-20T03:06:32;15.32;;;11.07;;
36797;SDS011;22748;8.426;99.512;2023-02-20T03:09:09;17.95;;;11.65;;
36797;SDS011;22748;8.426;99.512;2023-02-20T03:11:44;17.73;;;11.73;;
36797;SDS011;22748;8.426;99.512;2023-02-20T03:14:16;17.90;;;12.30;;
36797;SDS011;22748;8.426;99.512;2023-02-20T03:17:07;19.27;;;11.95;;
36797;SDS011;22748;8.426;99.512;2023-02-20T03:19:44;16.88;;;11.70;;
36797;SDS011;22748;8.426;99.512;2023-02-20T03:22:26;16.02;;;11.05;;
36797;SDS011;22748;8.426;99.512;2023-02-20T03:25:08;20.23;;;11.00;;
36797;SDS011;22748;8.426;99.512;2023-02-20T03:27:49;17.15;;;11.73;;
36797;SDS011;22748;8.426;99.512;2023-02-20T03:30:35;18.80;;;10.63;;
36797;SDS011;22748;8.426;99.512;2023-02-20T03:33:14;18.48;;;10.98;;
36797;SDS011;22748;8.426;99.512;2023-02-20T03:36:00;16.55;;;11.07;;
36797;SDS011;22748;8.426;99.512;2023-02-20T03:38:49;13.57;;;10.30;;
36797;SDS011;22748;8.426;99.512;2023-02-20T03:41:44;17.10;;;10.40;;
36797;SDS011;22748;8.426;99.512;2023-02-20T03:44:30;17.15;;;10.90;;
36797;SDS011;22748;8.426;99.512;2023-02-20T03:47:02;17.73;;;11.75;;
36797;SDS011;22748;8.426;99.512;2023-02-20T03:49:36;18.77;;;11.10;;
36797;SDS011;22748;8.426;99.512;2023-02-20T03:52:15;14.32;;;10.55;;
36797;SDS011;22748;8.426;99.512;2023-02-20T03:54:51;19.15;;;10.63;;
36797;SDS011;22748;8.426;99.512;2023-02-20T03:57:35;20.70;;;11.77;;
36797;SDS011;22748;8.426;99.512;2023-02-20T04:00:11;17.33;;;10.90;;
36797;SDS011;22748;8.426;99.512;2023-02-20T04:02:44;16.08;;;10.75;;
36797;SDS011;22748;8.426;99.512;2023-02-20T04:05:15;20.25;;;10.95;;
36797;SDS011;22748;8.426;99.512;2023-02-20T04:07:49;19.60;;;11.27;;
36797;SDS011;22748;8.426;99.512;2023-02-20T04:10:22;16.50;;;10.05;;
36797;SDS011;22748;8.426;99.512;2023-02-20T04:12:58;12.48;;;9.23;;
36797;SDS011;22748;8.426;99.512;2023-02-20T04:15:29;13.30;;;8.88;;
36797;SDS011;22748;8.426;99.512;2023-02-20T04:18:01;19.17;;;9.68;;
36797;SDS011;22748;8.426;99.512;2023-02-20T04:20:35;18.38;;;11.32;;
36797;SDS011;22748;8.426;99.512;2023-02-20T04:23:07;16.00;;;9.85;;
36797;SDS011;22748;8.426;99.512;2023-02-20T04:25:43;14.85;;;10.00;;
36797;SDS011;22748;8.426;99.512;2023-02-20T04:28:18;13.15;;;10.10;;
36797;SDS011;22748;8.426;99.512;2023-02-20T04:30:55;13.75;;;8.77;;
36797;SDS011;22748;8.426;99.512;2023-02-20T04:33:38;14.55;;;8.98;;
36797;SDS011;22748;8.426;99.512;2023-02-20T04:36:09;13.35;;;8.65;;
36797;SDS011;22748;8.426;99.512;2023-02-20T04:38:41;16.65;;;8.70;;
36797;SDS011;22748;8.426;99.512;2023-02-20T04:41:11;13.57;;;8.83;;
36797;SDS011;22748;8.426;99.512;2023-02-20T04:43:45;16.75;;;8.32;;
36797;SDS011;22748;8.426;99.512;2023-02-20T04:46:36;11.50;;;8.38;;
36797;SDS011;22748;8.426;99.512;2023-02-20T04:49:07;14.60;;;8.43;;
36797;SDS011;22748;8.426;99.512;2023-02-20T04:51:40;14.00;;;8.48;;
36797;SDS011;22748;8.426;99.512;2023-02-20T04:54:13;10.43;;;8.35;;
36797;SDS011;22748;8.426;99.512;2023-02-20T04:56:47;12.88;;;8.70;;
36797;SDS011;22748;8.426;99.512;2023-02-20T04:59:21;11.32;;;8.93;;
36797;SDS011;22748;8.426;99.512;2023-02-20T05:01:50;13.25;;;9.10;;
36797;SDS011;22748;8.426;99.512;2023-02-20T05:04:21;12.65;;;8.90;;
36797;SDS011;22748;8.426;99.512;2023-02-20T05:06:54;12.10;;;8.48;;
36797;SDS011;22748;8.426;99.512;2023-02-20T05:09:23;11.93;;;9.20;;
36797;SDS011;22748;8.426;99.512;2023-02-20T05:11:52;13.77;;;9.32;;
36797;SDS011;22748;8.426;99.512;2023-02-20T05:14:25;16.95;;;10.02;;
36797;SDS011;22748;8.426;99.512;2023-02-20T05:16:57;14.85;;;9.38;;
36797;SDS011;22748;8.426;99.512;2023-02-20T05:19:28;12.52;;;9.57;;
36797;SDS011;22748;8.426;99.512;2023-02-20T05:22:08;10.90;;;8.38;;
36797;SDS011;22748;8.426;99.512;2023-02-20T05:24:44;14.07;;;9.55;;
36797;SDS011;22748;8.426;99.512;2023-02-20T05:29:51;11.93;;;8.82;;
36797;SDS011;22748;8.426;99.512;2023-02-20T05:32:23;12.40;;;8.48;;
36797;SDS011;22748;8.426;99.512;2023-02-20T05:34:55;16.58;;;8.55;;
36797;SDS011;22748;8.426;99.512;2023-02-20T05:37:27;16.75;;;9.98;;
36797;SDS011;22748;8.426;99.512;2023-02-20T05:40:01;11.20;;;8.80;;
36797;SDS011;22748;8.426;99.512;2023-02-20T05:42:30;11.05;;;8.52;;
36797;SDS011;22748;8.426;99.512;2023-02-20T05:45:02;12.83;;;8.60;;
36797;SDS011;22748;8.426;99.512;2023-02-20T05:47:34;13.10;;;8.52;;
36797;SDS011;22748;8.426;99.512;2023-02-20T05:50:06;13.45;;;9.32;;
36797;SDS011;22748;8.426;99.512;2023-02-20T05:52:39;10.05;;;8.55;;
36797;SDS011;22748;8.426;99.512;2023-02-20T05:55:11;11.90;;;9.18;;
36797;SDS011;22748;8.426;99.512;2023-02-20T05:57:51;9.18;;;8.27;;
36797;SDS011;22748;8.426;99.512;2023-02-20T06:00:23;11.88;;;8.65;;
36797;SDS011;22748;8.426;99.512;2023-02-20T06:02:54;10.18;;;8.45;;
36797;SDS011;22748;8.426;99.512;2023-02-20T06:05:24;10.13;;;8.23;;
36797;SDS011;22748;8.426;99.512;2023-02-20T06:07:55;14.35;;;9.27;;
36797;SDS011;22748;8.426;99.512;2023-02-20T06:10:25;14.67;;;8.90;;
36797;SDS011;22748;8.426;99.512;2023-02-20T06:12:57;11.02;;;8.63;;
36797;SDS011;22748;8.426;99.512;2023-02-20T06:15:31;11.52;;;8.75;;
36797;SDS011;22748;8.426;99.512;2023-02-20T06:18:01;12.57;;;8.82;;
36797;SDS011;22748;8.426;99.512;2023-02-20T06:20:31;13.70;;;10.63;;
36797;SDS011;22748;8.426;99.512;2023-02-20T06:23:00;14.63;;;9.43;;
36797;SDS011;22748;8.426;99.512;2023-02-20T06:25:31;10.32;;;8.82;;
36797;SDS011;22748;8.426;99.512;2023-02-20T06:28:04;9.85;;;8.25;;
36797;SDS011;22748;8.426;99.512;2023-02-20T06:30:42;29.65;;;11.50;;
36797;SDS011;22748;8.426;99.512;2023-02-20T06:33:13;13.93;;;9.40;;
36797;SDS011;22748;8.426;99.512;2023-02-20T06:35:42;13.45;;;8.70;;
36797;SDS011;22748;8.426;99.512;2023-02-20T06:38:22;12.63;;;8.52;;
36797;SDS011;22748;8.426;99.512;2023-02-20T06:40:53;14.27;;;8.75;;
36797;SDS011;22748;8.426;99.512;2023-02-20T06:43:26;11.73;;;8.75;;
36797;SDS011;22748;8.426;99.512;2023-02-20T06:45:58;15.73;;;8.43;;
36797;SDS011;22748;8.426;99.512;2023-02-20T06:48:28;11.95;;;8.55;;
36797;SDS011;22748;8.426;99.512;2023-02-20T06:50:57;11.00;;;7.90;;
36797;SDS011;22748;8.426;99.512;2023-02-20T06:53:26;12.05;;;8.38;;
36797;SDS011;22748;8.426;99.512;2023-02-20T06:55:56;11.95;;;7.57;;
36797;SDS011;22748;8.426;99.512;2023-02-20T06:58:27;8.35;;;6.30;;
36797;SDS011;22748;8.426;99.512;2023-02-20T07:01:01;8.93;;;6.72;;
36797;SDS011;22748;8.426;99.512;2023-02-20T07:03:30;10.70;;;6.68;;
36797;SDS011;22748;8.426;99.512;2023-02-20T07:06:00;8.45;;;6.25;;
36797;SDS011;22748;8.426;99.512;2023-02-20T07:08:33;8.90;;;6.63;;
36797;SDS011;22748;8.426;99.512;2023-02-20T07:11:03;9.02;;;7.10;;
36797;SDS011;22748;8.426;99.512;2023-02-20T07:13:35;15.95;;;6.82;;
36797;SDS011;22748;8.426;99.512;2023-02-20T07:16:06;13.70;;;8.25;;
36797;SDS011;22748;8.426;99.512;2023-02-20T07:18:39;10.25;;;7.13;;
36797;SDS011;22748;8.426;99.512;2023-02-20T07:21:08;11.52;;;7.13;;
36797;SDS011;22748;8.426;99.512;2023-02-20T07:23:38;10.48;;;7.78;;
36797;SDS011;22748;8.426;99.512;2023-02-20T07:26:15;9.48;;;7.05;;
36797;SDS011;22748;8.426;99.512;2023-02-20T07:28:48;9.68;;;8.30;;
36797;SDS011;22748;8.426;99.512;2023-02-20T07:31:20;14.25;;;8.27;;
36797;SDS011;22748;8.426;99.512;2023-02-20T07:33:54;14.55;;;9.18;;
36797;SDS011;22748;8.426;99.512;2023-02-20T07:36:24;12.98;;;8.40;;
36797;SDS011;22748;8.426;99.512;2023-02-20T07:38:53;10.70;;;8.73;;
36797;SDS011;22748;8.426;99.512;2023-02-20T07:41:25;17.17;;;7.67;;
36797;SDS011;22748;8.426;99.512;2023-02-20T07:43:58;12.65;;;8.05;;
36797;SDS011;22748;8.426;99.512;2023-02-20T07:46:32;9.45;;;6.78;;
36797;SDS011;22748;8.426;99.512;2023-02-20T07:49:04;11.10;;;7.07;;
36797;SDS011;22748;8.426;99.512;2023-02-20T07:54:04;10.57;;;6.88;;
36797;SDS011;22748;8.426;99.512;2023-02-20T07:57:15;9.95;;;6.63;;
36797;SDS011;22748;8.426;99.512;2023-02-20T07:59:45;10.75;;;6.60;;
36797;SDS011;22748;8.426;99.512;2023-02-20T08:02:19;8.40;;;6.15;;
36797;SDS011;22748;8.426;99.512;2023-02-20T08:04:50;15.73;;;7.80;;
36797;SDS011;22748;8.426;99.512;2023-02-20T08:07:24;12.57;;;7.95;;
36797;SDS011;22748;8.426;99.512;2023-02-20T08:09:56;13.45;;;9.13;;
36797;SDS011;22748;8.426;99.512;2023-02-20T08:12:28;12.82;;;8.18;;
36797;SDS011;22748;8.426;99.512;2023-02-20T08:15:01;9.23;;;7.70;;
36797;SDS011;22748;8.426;99.512;2023-02-20T08:17:33;9.60;;;7.68;;
36797;SDS011;22748;8.426;99.512;2023-02-20T08:20:10;10.15;;;7.25;;
36797;SDS011;22748;8.426;99.512;2023-02-20T08:22:46;9.88;;;7.07;;
36797;SDS011;22748;8.426;99.512;2023-02-20T08:25:16;9.05;;;7.22;;
36797;SDS011;22748;8.426;99.512;2023-02-20T08:27:46;7.57;;;6.63;;
36797;SDS011;22748;8.426;99.512;2023-02-20T08:30:17;17.00;;;7.35;;
36797;SDS011;22748;8.426;99.512;2023-02-20T08:32:52;13.95;;;8.73;;
36797;SDS011;22748;8.426;99.512;2023-02-20T08:35:22;9.70;;;7.82;;
36797;SDS011;22748;8.426;99.512;2023-02-20T08:37:52;7.28;;;6.57;;
36797;SDS011;22748;8.426;99.512;2023-02-20T08:40:22;8.40;;;6.50;;
36797;SDS011;22748;8.426;99.512;2023-02-20T08:42:58;12.27;;;6.70;;
36797;SDS011;22748;8.426;99.512;2023-02-20T08:45:27;9.50;;;6.67;;
36797;SDS011;22748;8.426;99.512;2023-02-20T08:47:59;10.68;;;6.90;;
36797;SDS011;22748;8.426;99.512;2023-02-20T08:50:28;11.80;;;7.45;;
36797;SDS011;22748;8.426;99.512;2023-02-20T08:52:59;12.18;;;8.00;;
36797;SDS011;22748;8.426;99.512;2023-02-20T08:55:30;12.65;;;10.82;;
36797;SDS011;22748;8.426;99.512;2023-02-20T08:58:00;10.68;;;7.38;;
36797;SDS011;22748;8.426;99.512;2023-02-20T09:00:31;8.48;;;7.18;;
36797;SDS011;22748;8.426;99.512;2023-02-20T09:03:06;13.68;;;8.82;;
36797;SDS011;22748;8.426;99.512;2023-02-20T09:05:39;13.60;;;9.63;;
36797;SDS011;22748;8.426;99.512;2023-02-20T09:11:02;16.05;;;13.50;;
36797;SDS011;22748;8.426;99.512;2023-02-20T09:13:40;22.50;;;16.52;;
36797;SDS011;22748;8.426;99.512;2023-02-20T09:16:12;18.85;;;15.45;;
36797;SDS011;22748;8.426;99.512;2023-02-20T09:18:44;18.48;;;14.65;;
36797;SDS011;22748;8.426;99.512;2023-02-20T09:21:16;23.08;;;14.40;;
36797;SDS011;22748;8.426;99.512;2023-02-20T09:23:47;17.98;;;12.63;;
36797;SDS011;22748;8.426;99.512;2023-02-20T09:26:18;14.85;;;11.23;;
36797;SDS011;22748;8.426;99.512;2023-02-20T09:28:50;19.30;;;11.65;;
36797;SDS011;22748;8.426;99.512;2023-02-20T09:31:23;18.00;;;10.43;;
36797;SDS011;22748;8.426;99.512;2023-02-20T09:33:56;17.55;;;11.10;;
36797;SDS011;22748;8.426;99.512;2023-02-20T09:36:26;14.88;;;12.18;;
36797;SDS011;22748;8.426;99.512;2023-02-20T09:38:58;20.88;;;12.90;;
36797;SDS011;22748;8.426;99.512;2023-02-20T09:41:37;13.63;;;11.50;;
36797;SDS011;22748;8.426;99.512;2023-02-20T09:44:17;14.45;;;11.30;;
36797;SDS011;22748;8.426;99.512;2023-02-20T09:46:51;15.73;;;11.00;;
36797;SDS011;22748;8.426;99.512;2023-02-20T09:49:28;19.60;;;13.10;;
36797;SDS011;22748;8.426;99.512;2023-02-20T09:52:03;65.15;;;41.53;;
36797;SDS011;22748;8.426;99.512;2023-02-20T09:54:35;86.18;;;53.42;;
36797;SDS011;22748;8.426;99.512;2023-02-20T09:57:13;98.55;;;59.97;;
36797;SDS011;22748;8.426;99.512;2023-02-20T09:59:47;84.53;;;55.30;;
36797;SDS011;22748;8.426;99.512;2023-02-20T10:02:22;61.22;;;39.15;;
36797;SDS011;22748;8.426;99.512;2023-02-20T10:05:01;40.47;;;26.00;;
36797;SDS011;22748;8.426;99.512;2023-02-20T10:07:36;35.40;;;22.70;;
36797;SDS011;22748;8.426;99.512;2023-02-20T10:10:16;34.78;;;23.40;;
36797;SDS011;22748;8.426;99.512;2023-02-20T10:12:54;29.88;;;18.83;;
36797;SDS011;22748;8.426;99.512;2023-02-20T10:15:35;22.40;;;14.57;;
36797;SDS011;22748;8.426;99.512;2023-02-20T10:18:19;26.95;;;17.23;;
36797;SDS011;22748;8.426;99.512;2023-02-20T10:21:02;20.92;;;13.73;;
36797;SDS011;22748;8.426;99.512;2023-02-20T10:23:45;17.92;;;13.02;;
36797;SDS011;22748;8.426;99.512;2023-02-20T10:26:19;18.27;;;12.82;;
36797;SDS011;22748;8.426;99.512;2023-02-20T10:29:01;21.97;;;11.37;;
36797;SDS011;22748;8.426;99.512;2023-02-20T10:31:45;17.25;;;11.40;;
36797;SDS011;22748;8.426;99.512;2023-02-20T10:34:22;20.70;;;11.65;;
36797;SDS011;22748;8.426;99.512;2023-02-20T10:37:07;16.83;;;11.15;;
36797;SDS011;22748;8.426;99.512;2023-02-20T10:39:47;19.38;;;12.25;;
36797;SDS011;22748;8.426;99.512;2023-02-20T10:42:27;20.50;;;12.80;;
36797;SDS011;22748;8.426;99.512;2023-02-20T10:45:06;17.90;;;12.25;;
36797;SDS011;22748;8.426;99.512;2023-02-20T10:47:42;17.48;;;13.20;;
36797;SDS011;22748;8.426;99.512;2023-02-20T10:50:19;17.25;;;13.95;;
36797;SDS011;22748;8.426;99.512;2023-02-20T10:52:56;19.60;;;13.63;;
36797;SDS011;22748;8.426;99.512;2023-02-20T10:55:34;21.35;;;14.50;;
36797;SDS011;22748;8.426;99.512;2023-02-20T10:58:11;19.00;;;13.88;;
36797;SDS011;22748;8.426;99.512;2023-02-20T11:00:50;25.63;;;16.85;;
36797;SDS011;22748;8.426;99.512;2023-02-20T11:03:29;36.00;;;24.73;;
36797;SDS011;22748;8.426;99.512;2023-02-20T11:06:10;31.55;;;21.80;;
36797;SDS011;22748;8.426;99.512;2023-02-20T11:08:48;28.50;;;20.25;;
36797;SDS011;22748;8.426;99.512;2023-02-20T11:11:24;23.95;;;17.25;;
36797;SDS011;22748;8.426;99.512;2023-02-20T11:14:01;26.00;;;19.05;;
36797;SDS011;22748;8.426;99.512;2023-02-20T11:16:41;24.38;;;17.77;;
36797;SDS011;22748;8.426;99.512;2023-02-20T11:19:16;31.40;;;19.20;;
36797;SDS011;22748;8.426;99.512;2023-02-20T11:21:53;20.50;;;13.93;;
36797;SDS011;22748;8.426;99.512;2023-02-20T11:24:29;16.95;;;12.32;;
36797;SDS011;22748;8.426;99.512;2023-02-20T11:27:06;17.80;;;11.20;;
36797;SDS011;22748;8.426;99.512;2023-02-20T11:29:45;16.58;;;11.27;;
36797;SDS011;22748;8.426;99.512;2023-02-20T11:41:06;15.45;;;9.25;;
36797;SDS011;22748;8.426;99.512;2023-02-20T11:44:04;14.43;;;10.07;;
36797;SDS011;22748;8.426;99.512;2023-02-20T11:46:48;13.23;;;9.07;;
36797;SDS011;22748;8.426;99.512;2023-02-20T11:49:38;26.85;;;9.85;;
36797;SDS011;22748;8.426;99.512;2023-02-20T11:52:14;18.80;;;13.43;;
36797;SDS011;22748;8.426;99.512;2023-02-20T11:54:46;23.63;;;15.00;;
36797;SDS011;22748;8.426;99.512;2023-02-20T11:57:41;19.02;;;13.55;;
36797;SDS011;22748;8.426;99.512;2023-02-20T12:00:14;21.60;;;13.70;;
36797;SDS011;22748;8.426;99.512;2023-02-20T12:02:50;26.38;;;14.50;;
36797;SDS011;22748;8.426;99.512;2023-02-20T12:05:35;20.02;;;11.98;;
36797;SDS011;22748;8.426;99.512;2023-02-20T12:11:03;16.58;;;12.13;;
36797;SDS011;22748;8.426;99.512;2023-02-20T12:13:38;16.13;;;11.77;;
36797;SDS011;22748;8.426;99.512;2023-02-20T12:19:03;21.15;;;15.27;;
36797;SDS011;22748;8.426;99.512;2023-02-20T12:21:45;23.13;;;17.07;;
36797;SDS011;22748;8.426;99.512;2023-02-20T12:24:38;23.33;;;14.80;;
36797;SDS011;22748;8.426;99.512;2023-02-20T12:27:28;22.40;;;14.15;;
36797;SDS011;22748;8.426;99.512;2023-02-20T12:30:26;31.15;;;20.33;;
36797;SDS011;22748;8.426;99.512;2023-02-20T12:33:21;33.13;;;22.40;;
36797;SDS011;22748;8.426;99.512;2023-02-20T12:36:05;19.58;;;13.85;;
36797;SDS011;22748;8.426;99.512;2023-02-20T12:38:49;17.85;;;13.75;;
36797;SDS011;22748;8.426;99.512;2023-02-20T12:41:44;16.95;;;12.30;;
36797;SDS011;22748;8.426;99.512;2023-02-20T12:44:35;14.18;;;11.43;;
36797;SDS011;22748;8.426;99.512;2023-02-20T12:47:28;18.10;;;11.90;;
36797;SDS011;22748;8.426;99.512;2023-02-20T12:50:15;16.80;;;11.10;;
36797;SDS011;22748;8.426;99.512;2023-02-20T12:55:55;16.40;;;10.77;;
36797;SDS011;22748;8.426;99.512;2023-02-20T12:58:47;13.20;;;11.10;;
36797;SDS011;22748;8.426;99.512;2023-02-20T13:01:24;14.30;;;11.00;;
36797;SDS011;22748;8.426;99.512;2023-02-20T13:04:01;19.98;;;12.75;;
36797;SDS011;22748;8.426;99.512;2023-02-20T13:06:36;17.33;;;13.00;;
36797;SDS011;22748;8.426;99.512;2023-02-20T13:09:16;25.92;;;15.02;;
36797;SDS011;22748;8.426;99.512;2023-02-20T13:11:51;16.55;;;12.13;;
36797;SDS011;22748;8.426;99.512;2023-02-20T13:14:33;16.70;;;11.85;;
36797;SDS011;22748;8.426;99.512;2023-02-20T13:17:20;15.00;;;12.48;;
36797;SDS011;22748;8.426;99.512;2023-02-20T13:20:02;16.85;;;12.40;;
36797;SDS011;22748;8.426;99.512;2023-02-20T13:22:40;16.95;;;12.07;;
36797;SDS011;22748;8.426;99.512;2023-02-20T13:28:21;18.30;;;12.88;;
36797;SDS011;22748;8.426;99.512;2023-02-20T13:31:12;26.67;;;18.35;;
36797;SDS011;22748;8.426;99.512;2023-02-20T13:33:45;16.73;;;14.70;;
36797;SDS011;22748;8.426;99.512;2023-02-20T13:41:58;18.48;;;14.82;;
36797;SDS011;22748;8.426;99.512;2023-02-20T13:44:39;17.80;;;14.32;;
36797;SDS011;22748;8.426;99.512;2023-02-20T13:53:02;22.40;;;15.93;;
36797;SDS011;22748;8.426;99.512;2023-02-20T13:55:33;19.05;;;15.18;;
36797;SDS011;22748;8.426;99.512;2023-02-20T13:58:04;20.27;;;15.82;;
36797;SDS011;22748;8.426;99.512;2023-02-20T14:00:45;19.63;;;16.45;;
36797;SDS011;22748;8.426;99.512;2023-02-20T14:03:21;24.85;;;18.35;;
36797;SDS011;22748;8.426;99.512;2023-02-20T14:06:04;22.48;;;17.35;;
36797;SDS011;22748;8.426;99.512;2023-02-20T14:08:40;23.45;;;17.60;;
36797;SDS011;22748;8.426;99.512;2023-02-20T14:11:12;26.23;;;18.85;;
36797;SDS011;22748;8.426;99.512;2023-02-20T14:13:53;23.67;;;17.83;;
36797;SDS011;22748;8.426;99.512;2023-02-20T14:16:28;21.95;;;18.45;;
36797;SDS011;22748;8.426;99.512;2023-02-20T14:19:02;24.55;;;18.15;;
36797;SDS011;22748;8.426;99.512;2023-02-20T14:21:37;20.17;;;17.90;;
36797;SDS011;22748;8.426;99.512;2023-02-20T14:24:15;21.10;;;16.67;;
36797;SDS011;22748;8.426;99.512;2023-02-20T14:26:48;19.38;;;16.65;;
36797;SDS011;22748;8.426;99.512;2023-02-20T14:29:22;19.02;;;15.57;;
36797;SDS011;22748;8.426;99.512;2023-02-20T14:31:57;20.10;;;16.00;;
36797;SDS011;22748;8.426;99.512;2023-02-20T14:34:32;18.58;;;14.43;;
36797;SDS011;22748;8.426;99.512;2023-02-20T14:37:18;20.30;;;14.35;;
36797;SDS011;22748;8.426;99.512;2023-02-20T14:39:59;16.77;;;13.90;;
36797;SDS011;22748;8.426;99.512;2023-02-20T14:42:36;14.85;;;13.20;;
36797;SDS011;22748;8.426;99.512;2023-02-20T14:45:12;20.25;;;14.27;;
36797;SDS011;22748;8.426;99.512;2023-02-20T14:47:49;16.48;;;13.38;;
36797;SDS011;22748;8.426;99.512;2023-02-20T14:50:22;16.17;;;13.77;;
36797;SDS011;22748;8.426;99.512;2023-02-20T14:53:03;14.35;;;12.52;;
36797;SDS011;22748;8.426;99.512;2023-02-20T14:55:43;14.65;;;12.25;;
36797;SDS011;22748;8.426;99.512;2023-02-20T14:58:14;14.55;;;12.77;;
36797;SDS011;22748;8.426;99.512;2023-02-20T15:00:47;16.38;;;13.13;;
36797;SDS011;22748;8.426;99.512;2023-02-20T15:03:18;14.80;;;12.15;;
36797;SDS011;22748;8.426;99.512;2023-02-20T15:05:50;13.50;;;12.20;;
36797;SDS011;22748;8.426;99.512;2023-02-20T15:08:23;13.88;;;12.35;;
36797;SDS011;22748;8.426;99.512;2023-02-20T15:11:01;15.07;;;12.32;;
36797;SDS011;22748;8.426;99.512;2023-02-20T15:13:37;13.90;;;12.50;;
36797;SDS011;22748;8.426;99.512;2023-02-20T15:16:13;13.40;;;11.70;;
36797;SDS011;22748;8.426;99.512;2023-02-20T15:18:48;14.20;;;12.18;;
36797;SDS011;22748;8.426;99.512;2023-02-20T15:21:30;13.00;;;11.63;;
36797;SDS011;22748;8.426;99.512;2023-02-20T15:24:11;13.50;;;11.50;;
36797;SDS011;22748;8.426;99.512;2023-02-20T15:27:07;19.45;;;11.88;;
36797;SDS011;22748;8.426;99.512;2023-02-20T15:29:40;13.00;;;11.60;;
36797;SDS011;22748;8.426;99.512;2023-02-20T15:32:14;16.15;;;12.18;;
36797;SDS011;22748;8.426;99.512;2023-02-20T15:34:50;13.98;;;11.25;;
36797;SDS011;22748;8.426;99.512;2023-02-20T15:37:24;14.23;;;11.88;;
36797;SDS011;22748;8.426;99.512;2023-02-20T15:40:05;16.38;;;12.20;;
36797;SDS011;22748;8.426;99.512;2023-02-20T15:42:41;15.88;;;12.38;;
36797;SDS011;22748;8.426;99.512;2023-02-20T15:45:15;12.43;;;11.15;;
36797;SDS011;22748;8.426;99.512;2023-02-20T15:47:45;12.90;;;11.57;;
36797;SDS011;22748;8.426;99.512;2023-02-20T15:50:16;13.32;;;11.85;;
36797;SDS011;22748;8.426;99.512;2023-02-20T15:52:48;13.45;;;11.38;;
36797;SDS011;22748;8.426;99.512;2023-02-20T15:57:54;11.15;;;9.50;;
36797;SDS011;22748;8.426;99.512;2023-02-20T16:00:28;12.50;;;8.65;;
36797;SDS011;22748;8.426;99.512;2023-02-20T16:03:01;8.63;;;7.47;;
36797;SDS011;22748;8.426;99.512;2023-02-20T16:05:31;9.27;;;7.70;;